createdAt,value
2023-05-15T00:02:16.943Z,32.17
2023-05-15T00:04:45.799Z,31.82
2023-05-15T00:07:16.205Z,32.19
2023-05-15T00:09:44.583Z,31.71
2023-05-15T00:12:13.481Z,31.50
2023-05-15T00:14:42.007Z,31.68
2023-05-15T00:17:11.056Z,31.79
2023-05-15T00:19:39.732Z,31.65
2023-05-15T00:22:08.503Z,31.70
2023-05-15T00:24:38.401Z,32.10
2023-05-15T00:27:07.547Z,32.39
2023-05-15T00:29:35.912Z,32.86
2023-05-15T00:32:05.184Z,32.36
2023-05-15T00:34:33.444Z,31.99
2023-05-15T00:37:02.199Z,31.77
2023-05-15T00:39:30.480Z,31.95
2023-05-15T00:42:02.235Z,31.37
2023-05-15T00:44:31.631Z,31.69
2023-05-15T00:47:00.823Z,31.60
2023-05-15T00:49:30.928Z,31.89
2023-05-15T00:52:02.115Z,32.41
2023-05-15T00:54:31.291Z,32.99
2023-05-15T00:57:01.654Z,31.68
2023-05-15T00:59:32.054Z,31.35
2023-05-15T01:02:01.453Z,31.99
2023-05-15T01:04:30.322Z,32.46
2023-05-15T01:06:59.001Z,32.62
2023-05-15T01:09:29.105Z,32.69
2023-05-15T01:12:00.685Z,31.94
2023-05-15T01:14:28.970Z,32.42
2023-05-15T01:16:57.646Z,31.70
2023-05-15T01:19:26.153Z,31.65
2023-05-15T01:22:21.334Z,30.48
2023-05-15T01:25:16.130Z,30.30
2023-05-15T01:27:50.229Z,30.42
2023-05-15T01:30:23.455Z,31.85
2023-05-15T01:32:57.135Z,34.28
2023-05-15T01:35:30.244Z,34.82
2023-05-15T01:38:05.505Z,35.20
2023-05-15T01:40:33.945Z,36.03
2023-05-15T01:43:10.140Z,35.61
2023-05-15T01:45:39.133Z,36.98
2023-05-15T01:48:10.014Z,37.21
2023-05-15T01:50:39.779Z,37.00
2023-05-15T01:53:09.844Z,37.48
2023-05-15T01:55:39.074Z,36.97
2023-05-15T01:58:10.307Z,36.50
2023-05-15T02:00:39.176Z,36.61
2023-05-15T02:03:08.400Z,36.71
2023-05-15T02:05:37.008Z,37.84
2023-05-15T02:08:06.467Z,36.87
2023-05-15T02:10:35.071Z,37.53
2023-05-15T02:13:03.832Z,37.63
2023-05-15T02:15:33.516Z,36.88
2023-05-15T02:18:02.367Z,37.33
2023-05-15T02:20:30.741Z,36.83
2023-05-15T02:22:59.585Z,37.26
2023-05-15T02:25:36.476Z,36.31
2023-05-15T02:28:06.706Z,36.78
2023-05-15T02:30:45.264Z,36.15
2023-05-15T02:33:17.855Z,36.18
2023-05-15T02:35:50.650Z,35.55
2023-05-15T02:38:22.172Z,35.97
2023-05-15T02:40:51.781Z,36.03
2023-05-15T02:43:21.117Z,36.12
2023-05-15T02:45:51.168Z,35.17
2023-05-15T02:48:19.950Z,35.59
2023-05-15T02:50:48.264Z,35.56
2023-05-15T02:53:16.863Z,35.69
2023-05-15T02:55:45.162Z,36.36
2023-05-15T02:58:13.859Z,35.96
2023-05-15T03:00:42.394Z,36.09
2023-05-15T03:03:12.254Z,35.65
2023-05-15T03:05:40.953Z,36.04
2023-05-15T03:08:09.832Z,37.17
2023-05-15T03:10:38.434Z,36.41
2023-05-15T03:13:07.058Z,36.92
2023-05-15T03:15:35.444Z,36.99
2023-05-15T03:18:04.428Z,37.41
2023-05-15T03:20:34.039Z,36.79
2023-05-15T03:23:02.889Z,36.88
2023-05-15T03:25:31.444Z,36.68
2023-05-15T03:27:59.978Z,36.91
2023-05-15T03:30:28.363Z,36.82
2023-05-15T03:32:57.712Z,36.56
2023-05-15T03:35:27.210Z,36.55
2023-05-15T03:37:57.257Z,36.09
2023-05-15T03:40:25.513Z,36.22
2023-05-15T03:42:54.424Z,36.86
2023-05-15T03:45:23.079Z,36.73
2023-05-15T03:47:52.412Z,37.01
2023-05-15T03:50:20.828Z,37.13
2023-05-15T03:52:49.432Z,36.98
2023-05-15T03:55:20.348Z,36.56
2023-05-15T03:57:48.905Z,37.02
2023-05-15T04:00:19.172Z,37.07
2023-05-15T04:02:47.961Z,37.82
2023-05-15T04:05:17.172Z,37.40
2023-05-15T04:07:46.069Z,37.39
2023-05-15T04:10:14.820Z,37.12
2023-05-15T04:12:45.009Z,36.59
2023-05-15T04:15:17.490Z,36.27
2023-05-15T04:17:47.005Z,37.18
2023-05-15T04:20:16.601Z,37.52
2023-05-15T04:22:45.946Z,37.28
2023-05-15T04:25:16.484Z,36.88
2023-05-15T04:27:46.995Z,36.63
2023-05-15T04:30:15.866Z,37.10
2023-05-15T04:32:44.682Z,37.38
2023-05-15T04:35:14.198Z,36.69
2023-05-15T04:37:45.856Z,36.98
2023-05-15T04:40:16.454Z,36.74
2023-05-15T04:42:47.177Z,36.86
2023-05-15T04:45:15.943Z,37.58
2023-05-15T04:47:44.846Z,37.39
2023-05-15T04:50:13.556Z,36.83
2023-05-15T04:52:43.136Z,36.70
2023-05-15T04:55:11.811Z,36.93
2023-05-15T04:57:40.840Z,36.17
2023-05-15T05:00:12.588Z,35.35
2023-05-15T05:02:41.687Z,35.96
2023-05-15T05:05:10.859Z,35.57
2023-05-15T05:07:39.450Z,35.52
2023-05-15T05:10:09.214Z,34.98
2023-05-15T05:12:38.132Z,34.99
2023-05-15T05:15:07.406Z,35.15
2023-05-15T05:17:37.682Z,34.41
2023-05-15T05:20:11.853Z,35.16
2023-05-15T05:22:42.698Z,35.00
2023-05-15T05:25:11.678Z,34.61
2023-05-15T05:27:40.641Z,34.36
2023-05-15T05:30:10.411Z,35.01
2023-05-15T05:32:40.817Z,34.20
2023-05-15T05:35:10.637Z,34.63
2023-05-15T05:37:41.222Z,34.61
2023-05-15T05:40:11.282Z,34.83
2023-05-15T05:42:39.969Z,34.70
2023-05-15T05:45:09.476Z,34.42
2023-05-15T05:47:38.567Z,34.32
2023-05-15T05:50:09.666Z,34.38
2023-05-15T05:52:38.640Z,34.65
2023-05-15T05:55:08.171Z,34.63
2023-05-15T05:57:36.851Z,35.23
2023-05-15T06:00:06.734Z,34.60
2023-05-15T06:02:36.083Z,35.06
2023-05-15T06:05:04.901Z,35.12
2023-05-15T06:07:35.280Z,34.64
2023-05-15T06:10:04.309Z,34.90
2023-05-15T06:12:33.061Z,34.60
2023-05-15T06:15:01.665Z,34.77
2023-05-15T06:17:30.576Z,34.65
2023-05-15T06:19:58.933Z,34.18
2023-05-15T06:22:27.726Z,34.33
2023-05-15T06:24:57.694Z,33.50
2023-05-15T06:27:26.577Z,33.92
2023-05-15T06:29:54.847Z,34.36
2023-05-15T06:32:24.020Z,34.04
2023-05-15T06:34:52.788Z,34.14
2023-05-15T06:37:21.657Z,34.18
2023-05-15T06:39:50.053Z,33.78
2023-05-15T06:42:20.301Z,32.88
2023-05-15T06:44:49.896Z,32.95
2023-05-15T06:47:18.501Z,33.05
2023-05-15T06:49:46.861Z,33.28
2023-05-15T06:52:16.724Z,33.00
2023-05-15T06:54:45.275Z,33.42
2023-05-15T06:57:14.301Z,33.18
2023-05-15T06:59:44.175Z,33.25
2023-05-15T07:02:13.272Z,33.50
2023-05-15T07:04:41.682Z,33.18
2023-05-15T07:07:10.327Z,33.08
2023-05-15T07:09:39.553Z,33.42
2023-05-15T07:12:08.945Z,33.50
2023-05-15T07:14:37.516Z,33.34
2023-05-15T07:17:07.729Z,32.65
2023-05-15T07:19:36.132Z,33.29
2023-05-15T07:22:04.858Z,33.35
2023-05-15T07:24:33.126Z,33.47
2023-05-15T07:27:01.905Z,33.03
2023-05-15T07:29:30.169Z,33.32
2023-05-15T07:31:58.722Z,33.57
2023-05-15T07:34:28.853Z,32.77
2023-05-15T07:36:57.404Z,33.16
2023-05-15T07:39:25.907Z,33.05
2023-05-15T07:41:54.606Z,33.42
2023-05-15T07:44:23.245Z,32.83
2023-05-15T07:46:51.907Z,32.73
2023-05-15T07:49:20.463Z,33.38
2023-05-15T07:51:50.468Z,33.15
2023-05-15T07:54:18.628Z,33.25
2023-05-15T07:56:47.151Z,33.62
2023-05-15T07:59:15.615Z,33.35
2023-05-15T08:01:44.105Z,33.45
2023-05-15T08:04:13.617Z,33.36
2023-05-15T08:06:43.824Z,33.41
2023-05-15T08:09:14.657Z,33.04
2023-05-15T08:11:43.362Z,33.23
2023-05-15T08:14:13.679Z,33.58
2023-05-15T08:16:42.458Z,34.00
2023-05-15T08:19:12.524Z,33.01
2023-05-15T08:21:41.365Z,33.61
2023-05-15T08:24:10.419Z,34.02
2023-05-15T08:26:40.503Z,33.90
2023-05-15T08:29:08.926Z,33.49
2023-05-15T08:31:37.586Z,33.81
2023-05-15T08:34:06.249Z,33.61
2023-05-15T08:36:35.924Z,33.60
2023-05-15T08:39:04.968Z,33.26
2023-05-15T08:44:10.169Z,32.62
2023-05-15T08:46:39.129Z,33.17
2023-05-15T08:49:13.523Z,32.39
2023-05-15T08:51:42.610Z,32.34
2023-05-15T08:54:12.019Z,31.77
2023-05-15T08:56:40.747Z,30.65
2023-05-15T08:59:10.847Z,30.35
2023-05-15T09:01:39.759Z,29.91
2023-05-15T09:04:08.364Z,29.90
2023-05-15T09:06:37.446Z,30.14
2023-05-15T09:09:06.256Z,28.65
2023-05-15T09:11:35.400Z,28.65
2023-05-15T09:14:05.057Z,29.14
2023-05-15T09:16:35.353Z,28.46
2023-05-15T09:19:04.252Z,28.66
2023-05-15T09:21:33.373Z,28.20
2023-05-15T09:24:18.357Z,27.16
2023-05-15T09:26:48.382Z,28.54
2023-05-15T09:29:19.163Z,28.59
2023-05-15T09:31:49.417Z,27.21
2023-05-15T09:34:17.924Z,28.49
2023-05-15T09:36:46.728Z,28.94
2023-05-15T09:39:15.332Z,28.88
2023-05-15T09:41:45.950Z,28.98
2023-05-15T09:44:22.128Z,28.37
2023-05-15T09:46:52.219Z,29.13
2023-05-15T09:49:20.845Z,29.37
2023-05-15T09:51:50.792Z,29.71
2023-05-15T09:54:20.573Z,29.81
2023-05-15T09:56:49.519Z,29.75
2023-05-15T09:59:21.761Z,29.51
2023-05-15T10:01:52.848Z,29.75
2023-05-15T10:04:21.477Z,31.01
2023-05-15T10:06:50.359Z,30.85
2023-05-15T10:09:20.137Z,30.98
2023-05-15T10:11:53.333Z,30.02
2023-05-15T10:14:23.602Z,29.82
2023-05-15T10:16:54.043Z,29.58
2023-05-15T10:19:24.776Z,28.71
2023-05-15T10:21:54.580Z,28.15
2023-05-15T10:24:23.948Z,27.97
2023-05-15T10:26:52.792Z,28.25
2023-05-15T10:29:25.472Z,27.89
2023-05-15T10:31:55.721Z,27.12
2023-05-15T10:34:24.138Z,26.95
2023-05-15T10:36:53.269Z,27.56
2023-05-15T10:39:22.142Z,27.77
2023-05-15T10:41:51.829Z,28.20
2023-05-15T10:44:20.940Z,28.72
2023-05-15T10:46:50.136Z,29.06
2023-05-15T10:49:19.926Z,29.08
2023-05-15T10:51:48.627Z,29.00
2023-05-15T10:54:17.480Z,29.76
2023-05-15T10:56:46.254Z,29.62
2023-05-15T10:59:14.801Z,29.55
2023-05-15T11:01:44.103Z,29.13
2023-05-15T11:04:14.241Z,28.64
2023-05-15T11:06:45.370Z,27.99
2023-05-15T11:09:39.622Z,26.74
2023-05-15T11:12:10.132Z,23.78
2023-05-15T11:14:41.021Z,20.50
2023-05-15T11:17:11.005Z,20.06
2023-05-15T11:19:58.050Z,20.29
2023-05-15T11:22:33.591Z,21.59
2023-05-15T11:25:03.834Z,23.07
2023-05-15T11:27:33.878Z,23.52
2023-05-15T11:30:11.170Z,23.48
2023-05-15T11:32:58.559Z,23.96
2023-05-15T11:35:29.719Z,25.03
2023-05-15T11:38:00.684Z,24.68
2023-05-15T11:40:31.224Z,23.04
2023-05-15T11:43:07.715Z,22.14
2023-05-15T11:45:38.436Z,22.84
2023-05-15T11:48:08.893Z,22.72
2023-05-15T11:50:37.354Z,23.43
2023-05-15T11:53:09.275Z,23.32
2023-05-15T11:55:40.333Z,24.03
2023-05-15T11:58:13.272Z,23.59
2023-05-15T12:00:42.140Z,24.88
2023-05-15T12:03:18.213Z,24.66
2023-05-15T12:05:57.487Z,25.33
2023-05-15T12:08:33.507Z,25.36
2023-05-15T12:11:02.353Z,26.12
2023-05-15T12:13:32.098Z,26.02
2023-05-15T12:16:00.626Z,25.61
2023-05-15T12:18:29.383Z,24.88
2023-05-15T12:20:58.253Z,24.09
2023-05-15T12:23:29.003Z,23.53
2023-05-15T12:25:59.968Z,22.76
2023-05-15T12:28:28.396Z,21.91
2023-05-15T12:30:56.923Z,23.26
2023-05-15T12:33:26.402Z,23.85
2023-05-15T12:36:00.832Z,23.37
2023-05-15T12:38:33.972Z,23.76
2023-05-15T12:41:02.199Z,24.06
2023-05-15T12:43:32.737Z,23.83
2023-05-15T12:46:01.380Z,24.11
2023-05-15T12:48:33.909Z,23.61
2023-05-15T12:51:09.637Z,23.63
2023-05-15T12:53:40.437Z,23.58
2023-05-15T12:56:09.286Z,23.83
2023-05-15T12:58:39.474Z,23.88
2023-05-15T13:01:08.059Z,23.68
2023-05-15T13:03:37.235Z,23.48
2023-05-15T13:06:07.250Z,23.15
2023-05-15T13:08:42.707Z,22.61
2023-05-15T13:11:13.525Z,21.98
2023-05-15T13:13:46.495Z,22.42
2023-05-15T13:16:22.333Z,22.28
2023-05-15T13:18:51.298Z,23.50
2023-05-15T13:21:19.792Z,23.85
2023-05-15T13:23:49.974Z,24.26
2023-05-15T13:26:18.495Z,24.63
2023-05-15T13:28:47.307Z,25.00
2023-05-15T13:31:15.693Z,24.47
2023-05-15T13:33:45.907Z,22.87
2023-05-15T13:36:14.164Z,22.98
2023-05-15T13:38:42.929Z,21.86
2023-05-15T13:41:12.920Z,20.98
2023-05-15T13:43:41.614Z,21.60
2023-05-15T13:46:10.124Z,21.09
2023-05-15T13:48:39.223Z,20.80
2023-05-15T13:51:07.763Z,20.08
2023-05-15T13:53:36.374Z,19.32
2023-05-15T13:56:04.794Z,19.74
2023-05-15T13:58:34.816Z,19.25
2023-05-15T14:01:06.207Z,18.80
2023-05-15T14:03:35.323Z,19.73
2023-05-15T14:06:04.278Z,19.31
2023-05-15T14:08:32.924Z,19.16
2023-05-15T14:11:01.313Z,19.01
2023-05-15T14:13:31.896Z,19.09
2023-05-15T14:16:01.605Z,19.19
2023-05-15T14:18:31.982Z,19.18
2023-05-15T14:21:00.538Z,19.07
2023-05-15T14:23:29.354Z,18.91
2023-05-15T14:25:57.640Z,19.16
2023-05-15T14:28:26.196Z,19.21
2023-05-15T14:30:54.957Z,19.36
2023-05-15T14:33:24.969Z,19.26
2023-05-15T14:35:53.470Z,19.66
2023-05-15T14:38:22.060Z,20.01
2023-05-15T14:40:50.659Z,20.32
2023-05-15T14:43:19.194Z,20.31
2023-05-15T14:45:48.064Z,20.26
2023-05-15T14:48:16.616Z,20.64
2023-05-15T14:50:46.425Z,20.04
2023-05-15T14:53:15.121Z,19.88
2023-05-15T14:55:43.495Z,19.49
2023-05-15T14:58:12.131Z,19.02
2023-05-15T15:00:41.061Z,18.94
2023-05-15T15:03:09.989Z,19.30
2023-05-15T15:05:38.436Z,19.49
2023-05-15T15:08:10.092Z,19.02
2023-05-15T15:10:39.758Z,19.20
2023-05-15T15:13:10.493Z,19.41
2023-05-15T15:15:39.059Z,19.61
2023-05-15T15:18:08.142Z,19.23
2023-05-15T15:20:36.472Z,19.31
2023-05-15T15:23:05.210Z,19.19
2023-05-15T15:25:36.110Z,18.28
2023-05-15T15:28:04.967Z,17.80
2023-05-15T15:30:33.319Z,18.38
2023-05-15T15:33:02.291Z,18.30
2023-05-15T15:35:30.895Z,18.64
2023-05-15T15:37:59.645Z,18.77
2023-05-15T15:40:29.860Z,18.49
2023-05-15T15:43:01.882Z,18.43
2023-05-15T15:45:30.423Z,18.42
2023-05-15T15:47:59.259Z,17.99
2023-05-15T15:50:28.082Z,18.04
2023-05-15T15:52:56.709Z,18.16
2023-05-15T15:55:25.189Z,18.08
2023-05-15T15:57:54.035Z,18.09
2023-05-15T16:00:24.348Z,17.71
2023-05-15T16:02:53.601Z,18.23
2023-05-15T16:05:22.534Z,18.32
2023-05-15T16:07:51.292Z,18.48
2023-05-15T16:10:19.714Z,18.26
2023-05-15T16:12:48.396Z,18.16
2023-05-15T16:15:23.035Z,18.98
2023-05-15T16:17:54.926Z,18.65
2023-05-15T16:20:23.831Z,19.35
2023-05-15T16:22:52.744Z,19.65
2023-05-15T16:25:21.344Z,19.72
2023-05-15T16:27:49.929Z,20.01
2023-05-15T16:30:21.445Z,19.99
2023-05-15T16:32:50.402Z,20.63
2023-05-15T16:35:23.457Z,20.57
2023-05-15T16:37:52.188Z,21.00
2023-05-15T16:40:20.582Z,21.31
2023-05-15T16:42:49.164Z,20.83
2023-05-15T16:45:17.579Z,21.14
2023-05-15T16:47:46.792Z,21.08
2023-05-15T16:50:15.691Z,21.58
2023-05-15T16:52:47.757Z,21.32
2023-05-15T16:55:17.967Z,21.05
2023-05-15T16:57:47.373Z,21.23
2023-05-15T17:00:17.190Z,21.39
2023-05-15T17:02:45.876Z,21.69
2023-05-15T17:05:15.265Z,21.44
2023-05-15T17:07:45.686Z,21.37
2023-05-15T17:10:14.538Z,21.68
2023-05-15T17:12:43.178Z,21.89
2023-05-15T17:15:12.295Z,22.28
2023-05-15T17:17:41.039Z,22.38
2023-05-15T17:20:10.623Z,22.46
2023-05-15T17:22:39.218Z,22.51
2023-05-15T17:25:10.047Z,22.38
2023-05-15T17:27:41.585Z,22.81
2023-05-15T17:30:11.337Z,22.65
2023-05-15T17:32:40.637Z,22.73
2023-05-15T17:35:11.838Z,22.40
2023-05-15T17:37:40.600Z,22.76
2023-05-15T17:40:11.328Z,22.42
2023-05-15T17:42:40.056Z,22.73
2023-05-15T17:45:09.344Z,23.02
2023-05-15T17:47:38.159Z,23.14
2023-05-15T17:50:08.152Z,22.73
2023-05-15T17:52:37.430Z,22.84
2023-05-15T17:55:06.711Z,23.00
2023-05-15T17:57:36.821Z,23.00
2023-05-15T18:00:07.336Z,22.87
2023-05-15T18:02:36.214Z,23.08
2023-05-15T18:05:05.426Z,22.89
2023-05-15T18:07:34.250Z,23.05
2023-05-15T18:10:02.636Z,23.12
2023-05-15T18:12:31.275Z,23.22
2023-05-15T18:15:03.895Z,23.03
2023-05-15T18:17:32.535Z,23.62
2023-05-15T18:20:02.004Z,23.36
2023-05-15T18:22:30.983Z,23.13
2023-05-15T18:24:59.217Z,23.15
2023-05-15T18:27:28.312Z,22.97
2023-05-15T18:29:56.762Z,22.93
2023-05-15T18:32:26.766Z,22.49
2023-05-15T18:34:55.103Z,22.87
2023-05-15T18:37:23.565Z,22.44
2023-05-15T18:39:52.180Z,22.36
2023-05-15T18:42:20.927Z,22.33
2023-05-15T18:44:49.507Z,22.47
2023-05-15T18:47:18.347Z,22.93
2023-05-15T18:49:48.097Z,22.68
2023-05-15T18:52:17.786Z,23.43
2023-05-15T18:54:46.146Z,23.52
2023-05-15T18:57:15.413Z,23.96
2023-05-15T18:59:44.539Z,24.30
2023-05-15T19:02:13.525Z,24.29
2023-05-15T19:04:41.823Z,24.39
2023-05-15T19:07:11.750Z,24.31
2023-05-15T19:09:43.113Z,24.68
2023-05-15T19:12:11.627Z,24.82
2023-05-15T19:14:40.023Z,25.14
2023-05-15T19:17:08.719Z,24.72
2023-05-15T19:19:37.002Z,24.95
2023-05-15T19:22:06.333Z,25.20
2023-05-15T19:24:36.050Z,24.99
2023-05-15T19:27:05.983Z,25.58
2023-05-15T19:29:35.105Z,25.63
2023-05-15T19:32:04.033Z,26.21
2023-05-15T19:34:32.751Z,25.79
2023-05-15T19:37:01.355Z,26.33
2023-05-15T19:39:29.777Z,26.33
2023-05-15T19:41:59.822Z,26.07
2023-05-15T19:44:28.186Z,26.46
2023-05-15T19:46:57.115Z,26.73
2023-05-15T19:49:25.372Z,26.36
2023-05-15T19:51:54.442Z,26.50
2023-05-15T19:54:22.764Z,26.86
2023-05-15T19:56:51.452Z,27.17
2023-05-15T19:59:21.278Z,26.67
2023-05-15T20:01:50.631Z,27.32
2023-05-15T20:04:21.018Z,27.02
2023-05-15T20:06:49.840Z,27.64
2023-05-15T20:09:18.356Z,27.77
2023-05-15T20:11:47.110Z,28.15
2023-05-15T20:14:16.003Z,28.46
2023-05-15T20:16:46.363Z,28.81
2023-05-15T20:19:14.974Z,28.92
2023-05-15T20:21:44.065Z,29.14
2023-05-15T20:24:12.498Z,29.23
2023-05-15T20:26:40.972Z,29.05
2023-05-15T20:29:09.353Z,29.48
2023-05-15T20:31:38.203Z,29.37
2023-05-15T20:34:08.542Z,29.36
2023-05-15T20:36:39.110Z,29.53
2023-05-15T20:39:08.638Z,29.77
2023-05-15T20:41:37.700Z,29.84
2023-05-15T20:44:06.160Z,30.42
2023-05-15T20:46:34.990Z,30.24
2023-05-15T20:49:03.463Z,30.42
2023-05-15T20:51:33.476Z,29.74
2023-05-15T20:54:01.895Z,29.88
2023-05-15T20:56:30.704Z,30.16
2023-05-15T20:58:59.950Z,30.49
2023-05-15T21:01:28.660Z,30.30
2023-05-15T21:03:56.843Z,30.49
2023-05-15T21:06:25.700Z,30.34
2023-05-15T21:08:55.426Z,30.08
2023-05-15T21:11:24.076Z,30.37
2023-05-15T21:13:52.531Z,30.21
2023-05-15T21:16:21.299Z,30.25
2023-05-15T21:18:49.635Z,29.96
2023-05-15T21:21:18.357Z,29.59
2023-05-15T21:23:46.633Z,29.94
2023-05-15T21:26:16.782Z,29.46
2023-05-15T21:28:44.988Z,30.01
2023-05-15T21:31:13.645Z,29.95
2023-05-15T21:33:41.923Z,29.84
2023-05-15T21:36:11.001Z,29.91
2023-05-15T21:38:39.355Z,29.81
2023-05-15T21:41:08.211Z,30.01
2023-05-15T21:43:37.701Z,29.96
2023-05-15T21:46:06.507Z,29.85
2023-05-15T21:48:35.041Z,29.83
2023-05-15T21:51:03.792Z,30.31
2023-05-15T21:53:32.173Z,29.75
2023-05-15T21:56:01.307Z,30.05
2023-05-15T21:58:29.938Z,29.88
2023-05-15T22:01:00.157Z,29.69
2023-05-15T22:03:31.045Z,29.99
2023-05-15T22:05:59.981Z,29.98
2023-05-15T22:08:29.588Z,29.72
2023-05-15T22:10:58.220Z,30.10
2023-05-15T22:13:26.514Z,30.27
2023-05-15T22:15:55.123Z,30.84
2023-05-15T22:18:25.082Z,30.75
2023-05-15T22:20:55.216Z,30.82
2023-05-15T22:23:23.505Z,31.05
2023-05-15T22:25:52.192Z,30.66
2023-05-15T22:28:21.180Z,30.85
2023-05-15T22:30:49.601Z,30.77
2023-05-15T22:33:17.932Z,31.02
2023-05-15T22:35:48.055Z,30.44
2023-05-15T22:38:16.442Z,31.04
2023-05-15T22:40:45.554Z,31.22
2023-05-15T22:43:13.926Z,31.29
2023-05-15T22:45:42.465Z,31.39
2023-05-15T22:48:10.767Z,31.29
2023-05-15T22:50:39.501Z,31.23
2023-05-15T22:53:09.273Z,30.97
2023-05-15T22:55:37.846Z,31.23
2023-05-15T22:58:06.094Z,31.21
2023-05-15T23:00:34.705Z,31.49
2023-05-15T23:03:03.034Z,31.18
2023-05-15T23:05:33.752Z,31.27
2023-05-15T23:08:02.316Z,31.25
2023-05-15T23:10:32.365Z,30.86
2023-05-15T23:13:00.584Z,31.14
2023-05-15T23:15:29.260Z,31.31
2023-05-15T23:17:57.744Z,31.29
2023-05-15T23:20:26.473Z,31.40
2023-05-15T23:22:55.270Z,31.32
2023-05-15T23:25:23.957Z,31.46
2023-05-15T23:27:53.722Z,30.96
2023-05-15T23:30:22.369Z,31.03
2023-05-15T23:32:51.139Z,31.23
2023-05-15T23:35:19.685Z,31.11
2023-05-15T23:37:48.212Z,31.19
2023-05-15T23:40:17.080Z,31.43
2023-05-15T23:42:45.764Z,31.16
2023-05-15T23:45:16.302Z,30.70
2023-05-15T23:47:46.705Z,30.97
2023-05-15T23:50:15.386Z,30.69
2023-05-15T23:52:43.526Z,30.70
2023-05-15T23:55:13.311Z,30.82
2023-05-15T23:57:41.779Z,31.00
